Time;durP1;ratioP1;P1;durP2;ratioP2;P2;SDS_P1;SDS_P2;PMS_P1;PMS_P2;Temp;Humidity;BMP_temperature;BMP_pressure;BME280_temperature;BME280_humidity;BME280_pressure;Samples;Min_cycle;Max_cycle;Signal;HPM_P1;HPM_P2
2021/01/01 00:01:14;;;;;;;;;;;20.50;93.70;;;;;;5044958;28;19920;-85
2021/01/01 00:03:41;;;;;;;;;;;20.50;93.00;;;;;;5062726;28;19931;-86
2021/01/01 00:06:11;;;;;;;;;;;20.60;93.50;;;;;;5059100;28;19917;-88
2021/01/01 00:08:38;;;;;;;;;;;20.70;93.30;;;;;;5053466;28;20403;-84
2021/01/01 00:11:04;;;;;;;;;;;20.80;93.20;;;;;;5054908;28;20363;-88
2021/01/01 00:13:31;;;;;;;;;;;20.80;92.70;;;;;;5040072;28;19959;-90
2021/01/01 00:15:58;;;;;;;;;;;20.70;92.60;;;;;;5057842;28;20024;-89
2021/01/01 00:18:29;;;;;;;;;;;20.70;92.80;;;;;;5058526;28;20899;-90
2021/01/01 00:20:58;;;;;;;;;;;20.60;93.10;;;;;;5057589;28;19925;-90
2021/01/01 00:23:25;;;;;;;;;;;20.60;93.00;;;;;;5057048;28;19919;-90
2021/01/01 00:25:52;;;;;;;;;;;20.60;93.60;;;;;;5040755;28;19987;-94
2021/01/01 00:28:18;;;;;;;;;;;20.60;93.10;;;;;;5022957;28;19944;-91
2021/01/01 00:30:45;;;;;;;;;;;20.60;93.10;;;;;;5058016;28;19940;-91
2021/01/01 00:33:12;;;;;;;;;;;20.70;92.90;;;;;;5037738;28;19913;-91
2021/01/01 00:35:39;;;;;;;;;;;20.70;92.80;;;;;;5059364;28;19924;-87
2021/01/01 00:38:06;;;;;;;;;;;20.80;93.00;;;;;;5060205;28;19908;-88
2021/01/01 00:40:32;;;;;;;;;;;20.70;93.30;;;;;;5047555;28;19913;-86
2021/01/01 00:42:59;;;;;;;;;;;20.80;93.40;;;;;;5053132;28;20279;-85
2021/01/01 00:45:26;;;;;;;;;;;20.80;92.90;;;;;;5055662;28;19986;-83
2021/01/01 00:47:52;;;;;;;;;;;20.70;93.30;;;;;;5055060;28;19917;-87
2021/01/01 00:50:19;;;;;;;;;;;20.70;93.20;;;;;;5037417;28;19916;-82
2021/01/01 00:52:46;;;;;;;;;;;20.70;93.20;;;;;;5037762;28;19912;-83
2021/01/01 00:55:13;;;;;;;;;;;20.70;93.00;;;;;;5036578;28;19979;-85
2021/01/01 00:57:39;;;;;;;;;;;20.70;93.00;;;;;;5054747;28;20390;-89
2021/01/01 01:00:07;;;;;;;;;;;20.60;92.90;;;;;;5055179;28;19944;-86
2021/01/01 01:02:35;;;;;;;;;;;20.60;92.50;;;;;;5039325;28;19912;-93
2021/01/01 01:05:01;;;;;;;;;;;20.50;92.70;;;;;;5020801;28;19956;-93
2021/01/01 01:07:28;;;;;;;;;;;20.60;93.00;;;;;;5040661;28;19913;-90
2021/01/01 01:09:56;;;;;;;;;;;20.60;92.60;;;;;;5057115;28;20378;-92
2021/01/01 01:12:23;;;;;;;;;;;20.70;92.60;;;;;;5041001;28;19964;-89
2021/01/01 01:14:50;;;;;;;;;;;20.60;92.80;;;;;;5058885;28;19912;-91
2021/01/01 01:17:16;;;;;;;;;;;20.70;92.80;;;;;;5039522;28;19958;-91
2021/01/01 01:19:43;;;;;;;;;;;20.70;92.80;;;;;;5057665;28;19935;-91
2021/01/01 01:22:10;;;;;;;;;;;20.70;92.80;;;;;;5057092;28;20398;-89
2021/01/01 01:24:36;;;;;;;;;;;20.70;92.40;;;;;;5058080;28;19917;-91
2021/01/01 01:27:03;;;;;;;;;;;20.70;92.50;;;;;;5058615;28;20415;-85
2021/01/01 01:29:30;;;;;;;;;;;20.70;92.30;;;;;;5042046;28;19920;-88
2021/01/01 01:31:56;;;;;;;;;;;20.70;92.70;;;;;;5058842;28;19928;-88
2021/01/01 01:34:23;;;;;;;;;;;20.80;92.40;;;;;;5040138;28;19951;-90
2021/01/01 01:36:50;;;;;;;;;;;20.80;92.40;;;;;;5057798;28;19913;-90
2021/01/01 01:39:19;;;;;;;;;;;20.80;92.10;;;;;;5057752;28;19909;-93
2021/01/01 01:41:45;;;;;;;;;;;20.70;92.30;;;;;;5057026;28;19909;-89
2021/01/01 01:44:12;;;;;;;;;;;20.80;92.60;;;;;;5056203;28;19947;-91
2021/01/01 01:46:40;;;;;;;;;;;20.90;92.50;;;;;;5058112;28;19912;-91
2021/01/01 01:49:08;;;;;;;;;;;20.90;92.80;;;;;;5063145;28;20047;-90
2021/01/01 01:51:35;;;;;;;;;;;20.90;92.40;;;;;;5058694;28;20366;-88
2021/01/01 01:54:02;;;;;;;;;;;20.90;92.30;;;;;;5057965;28;19909;-88
2021/01/01 01:56:29;;;;;;;;;;;20.90;92.30;;;;;;5057600;28;20421;-89
2021/01/01 01:58:56;;;;;;;;;;;20.90;91.70;;;;;;5056712;28;19955;-91
2021/01/01 02:01:23;;;;;;;;;;;20.90;91.90;;;;;;5057843;28;19916;-87
2021/01/01 02:03:50;;;;;;;;;;;20.90;91.40;;;;;;5057961;28;20482;-89
2021/01/01 02:06:17;;;;;;;;;;;20.90;91.90;;;;;;5058361;28;19916;-89
2021/01/01 02:08:43;;;;;;;;;;;21.00;92.00;;;;;;5041006;28;19928;-90
2021/01/01 02:11:11;;;;;;;;;;;21.00;91.90;;;;;;5060004;28;19995;-90
2021/01/01 02:13:38;;;;;;;;;;;21.00;91.70;;;;;;5060593;28;19944;-90
2021/01/01 02:16:06;;;;;;;;;;;21.10;91.80;;;;;;5062800;28;19915;-88
2021/01/01 02:18:36;;;;;;;;;;;21.10;91.90;;;;;;5062279;28;20012;-93
2021/01/01 02:21:04;;;;;;;;;;;21.10;91.60;;;;;;5057821;28;19925;-90
2021/01/01 02:23:30;;;;;;;;;;;21.10;91.80;;;;;;5066525;28;20003;-81
2021/01/01 02:25:57;;;;;;;;;;;21.00;91.50;;;;;;5064792;28;19916;-85
2021/01/01 02:28:24;;;;;;;;;;;20.90;91.80;;;;;;5042131;28;19921;-86
2021/01/01 02:30:51;;;;;;;;;;;21.00;91.90;;;;;;5062525;28;19912;-87
2021/01/01 02:33:18;;;;;;;;;;;21.00;91.70;;;;;;5056536;28;19955;-83
2021/01/01 02:35:44;;;;;;;;;;;21.00;91.40;;;;;;5053196;28;19974;-88
2021/01/01 02:38:14;;;;;;;;;;;21.00;91.10;;;;;;5061731;28;19917;-88
2021/01/01 02:40:41;;;;;;;;;;;21.00;90.90;;;;;;5044711;28;19908;-89
2021/01/01 02:43:08;;;;;;;;;;;21.00;91.20;;;;;;5054474;28;19920;-87
2021/01/01 02:45:34;;;;;;;;;;;21.00;91.00;;;;;;5038585;28;19965;-87
2021/01/01 02:48:08;;;;;;;;;;;21.00;91.20;;;;;;5055425;28;19913;-85
2021/01/01 02:50:35;;;;;;;;;;;20.90;91.10;;;;;;5033873;28;19913;-83
2021/01/01 02:53:03;;;;;;;;;;;20.90;90.60;;;;;;5050176;28;19916;-83
2021/01/01 02:55:31;;;;;;;;;;;20.90;90.80;;;;;;5052498;28;19935;-84
2021/01/01 02:57:58;;;;;;;;;;;20.80;90.30;;;;;;5051836;28;19909;-84
2021/01/01 03:00:25;;;;;;;;;;;20.70;90.60;;;;;;5052833;28;19917;-83
2021/01/01 03:02:52;;;;;;;;;;;20.70;90.50;;;;;;5058329;28;19970;-84
2021/01/01 03:05:19;;;;;;;;;;;20.70;91.10;;;;;;5055621;28;19956;-87
2021/01/01 03:07:45;;;;;;;;;;;20.70;91.20;;;;;;5052727;28;19928;-85
2021/01/01 03:10:12;;;;;;;;;;;20.70;91.00;;;;;;5062367;28;19909;-83
2021/01/01 03:12:39;;;;;;;;;;;20.70;90.40;;;;;;5057614;28;20328;-84
2021/01/01 03:15:06;;;;;;;;;;;20.60;90.60;;;;;;5052101;28;19913;-83
2021/01/01 03:17:33;;;;;;;;;;;20.60;90.90;;;;;;5051783;28;19948;-82
2021/01/01 03:19:59;;;;;;;;;;;20.50;90.90;;;;;;5050556;28;19939;-85
2021/01/01 03:22:26;;;;;;;;;;;20.50;90.60;;;;;;5051685;28;19916;-85
2021/01/01 03:24:53;;;;;;;;;;;20.50;90.60;;;;;;5049051;28;19970;-82
2021/01/01 03:27:20;;;;;;;;;;;20.50;90.50;;;;;;5031373;28;20011;-85
2021/01/01 03:29:46;;;;;;;;;;;20.50;90.60;;;;;;5038020;28;19916;-84
2021/01/01 03:32:13;;;;;;;;;;;20.50;90.70;;;;;;5043752;28;19913;-82
2021/01/01 03:34:40;;;;;;;;;;;20.50;90.10;;;;;;5047796;28;19924;-83
2021/01/01 03:37:06;;;;;;;;;;;20.50;90.80;;;;;;5035371;28;19909;-84
2021/01/01 03:39:33;;;;;;;;;;;20.50;90.30;;;;;;5063507;28;19917;-85
2021/01/01 03:42:00;;;;;;;;;;;20.50;90.60;;;;;;5051256;28;19909;-83
2021/01/01 03:44:26;;;;;;;;;;;20.50;90.30;;;;;;5052613;28;19981;-83
2021/01/01 03:46:53;;;;;;;;;;;20.50;89.30;;;;;;5060296;28;20293;-87
2021/01/01 03:49:20;;;;;;;;;;;20.50;89.60;;;;;;5075280;28;19932;-85
2021/01/01 03:51:47;;;;;;;;;;;20.50;90.40;;;;;;5047764;28;19928;-81
2021/01/01 03:54:13;;;;;;;;;;;20.40;91.80;;;;;;5045540;28;19935;-83
2021/01/01 03:56:40;;;;;;;;;;;20.20;93.90;;;;;;5054788;28;19920;-83
2021/01/01 03:59:07;;;;;;;;;;;20.00;96.10;;;;;;5055004;28;19924;-83
2021/01/01 04:01:33;;;;;;;;;;;19.70;96.70;;;;;;5037070;28;19989;-83
2021/01/01 04:04:00;;;;;;;;;;;19.40;99.00;;;;;;5037532;28;19912;-84
2021/01/01 04:06:27;;;;;;;;;;;19.20;99.80;;;;;;5055293;28;19932;-83
2021/01/01 04:08:53;;;;;;;;;;;19.00;99.90;;;;;;5035104;28;20291;-82
2021/01/01 04:11:20;;;;;;;;;;;18.70;99.90;;;;;;5047147;28;19921;-83
2021/01/01 04:13:47;;;;;;;;;;;18.70;99.40;;;;;;5054951;28;20656;-83
2021/01/01 04:16:13;;;;;;;;;;;18.70;99.90;;;;;;5055735;28;19944;-83
2021/01/01 04:18:40;;;;;;;;;;;18.60;99.90;;;;;;5055200;28;20318;-83
2021/01/01 04:21:07;;;;;;;;;;;18.40;99.90;;;;;;5052996;28;20255;-84
2021/01/01 04:23:35;;;;;;;;;;;18.10;99.90;;;;;;5028026;28;19913;-84
2021/01/01 04:26:03;;;;;;;;;;;18.00;99.90;;;;;;5038559;28;20439;-83
2021/01/01 04:28:29;;;;;;;;;;;17.90;99.90;;;;;;5034391;28;20307;-83
2021/01/01 04:30:56;;;;;;;;;;;17.90;99.90;;;;;;5023451;28;20435;-84
2021/01/01 04:33:23;;;;;;;;;;;17.80;99.90;;;;;;5054791;28;20049;-83
2021/01/01 04:35:49;;;;;;;;;;;17.90;99.90;;;;;;5054947;28;19983;-84
2021/01/01 04:38:16;;;;;;;;;;;17.80;99.90;;;;;;5053752;28;19921;-84
2021/01/01 04:40:43;;;;;;;;;;;17.80;99.90;;;;;;5054323;28;19920;-84
2021/01/01 04:43:10;;;;;;;;;;;17.80;99.90;;;;;;5054433;28;19913;-84
2021/01/01 04:45:37;;;;;;;;;;;17.80;99.90;;;;;;5053782;28;20355;-83
2021/01/01 04:48:03;;;;;;;;;;;17.80;99.90;;;;;;5054050;28;19921;-83
2021/01/01 04:50:31;;;;;;;;;;;17.90;99.90;;;;;;5053765;28;19916;-82
2021/01/01 04:53:00;;;;;;;;;;;18.00;99.90;;;;;;5035704;28;19913;-82
2021/01/01 04:55:28;;;;;;;;;;;18.00;99.90;;;;;;5054938;28;19928;-82
2021/01/01 04:57:55;;;;;;;;;;;18.00;99.90;;;;;;5052633;28;19913;-83
2021/01/01 05:00:21;;;;;;;;;;;18.10;99.90;;;;;;5053719;28;19913;-82
2021/01/01 05:02:48;;;;;;;;;;;18.00;99.90;;;;;;5054190;28;19916;-82
2021/01/01 05:05:15;;;;;;;;;;;17.90;99.90;;;;;;5055951;28;19924;-82
2021/01/01 05:07:41;;;;;;;;;;;18.00;99.90;;;;;;5053649;28;19917;-82
2021/01/01 05:10:12;;;;;;;;;;;18.20;99.90;;;;;;5058800;28;20363;-82
2021/01/01 05:12:39;;;;;;;;;;;18.20;99.90;;;;;;5066176;28;19939;-81
2021/01/01 05:15:06;;;;;;;;;;;18.30;99.90;;;;;;5054046;28;19912;-82
2021/01/01 05:17:34;;;;;;;;;;;18.20;99.90;;;;;;5053143;28;19927;-81
2021/01/01 05:20:08;;;;;;;;;;;18.30;99.90;;;;;;5053483;28;20303;-81
2021/01/01 05:22:35;;;;;;;;;;;18.40;99.90;;;;;;5035217;28;19913;-81
2021/01/01 05:25:03;;;;;;;;;;;18.50;99.90;;;;;;5053721;28;19971;-82
2021/01/01 05:27:34;;;;;;;;;;;18.60;99.90;;;;;;5053524;28;19951;-82
2021/01/01 05:30:02;;;;;;;;;;;18.70;99.90;;;;;;5053458;28;19913;-82
2021/01/01 05:32:29;;;;;;;;;;;18.70;99.90;;;;;;5052505;28;19932;-82
2021/01/01 05:34:57;;;;;;;;;;;18.70;99.90;;;;;;5052443;28;20394;-82
2021/01/01 05:37:34;;;;;;;;;;;18.70;99.90;;;;;;5052925;28;19909;-82
2021/01/01 05:40:01;;;;;;;;;;;18.70;99.90;;;;;;5052700;28;19923;-82
2021/01/01 05:42:28;;;;;;;;;;;18.70;99.90;;;;;;5052123;28;19916;-82
2021/01/01 05:44:55;;;;;;;;;;;18.70;99.90;;;;;;5052752;28;19965;-82
2021/01/01 05:47:22;;;;;;;;;;;18.70;99.90;;;;;;5034417;28;19919;-83
2021/01/01 05:49:49;;;;;;;;;;;18.80;99.90;;;;;;5052193;28;19936;-83
2021/01/01 05:52:26;;;;;;;;;;;18.80;99.80;;;;;;5034254;28;20376;-81
2021/01/01 05:54:59;;;;;;;;;;;18.90;99.90;;;;;;5025995;28;20260;-81
2021/01/01 05:57:36;;;;;;;;;;;18.80;99.90;;;;;;5034707;28;20004;-82
2021/01/01 06:00:05;;;;;;;;;;;18.70;99.60;;;;;;5052254;28;19913;-83
2021/01/01 06:02:36;;;;;;;;;;;18.70;99.80;;;;;;5052431;28;19913;-82
2021/01/01 06:05:05;;;;;;;;;;;18.80;98.60;;;;;;5052653;28;19952;-83
2021/01/01 06:07:35;;;;;;;;;;;18.80;98.90;;;;;;5019046;28;19927;-82
2021/01/01 06:10:03;;;;;;;;;;;18.90;98.10;;;;;;5053417;28;20294;-83
2021/01/01 06:12:33;;;;;;;;;;;19.00;98.00;;;;;;5046654;28;19917;-80
2021/01/01 06:15:00;;;;;;;;;;;19.10;97.70;;;;;;5026264;28;20450;-82
2021/01/01 06:17:33;;;;;;;;;;;19.20;97.50;;;;;;5051681;28;19914;-84
2021/01/01 06:20:16;;;;;;;;;;;19.20;97.80;;;;;;5029428;28;20295;-86
2021/01/01 06:22:58;;;;;;;;;;;19.30;97.50;;;;;;5050536;28;19975;-82
2021/01/01 06:25:24;;;;;;;;;;;19.40;97.00;;;;;;5033770;28;19925;-86
2021/01/01 06:27:51;;;;;;;;;;;19.40;97.10;;;;;;5033532;28;19909;-87
2021/01/01 06:30:20;;;;;;;;;;;19.40;97.00;;;;;;5049902;28;19908;-86
2021/01/01 06:32:46;;;;;;;;;;;19.50;96.60;;;;;;5051702;28;19923;-87
2021/01/01 06:35:14;;;;;;;;;;;19.60;96.80;;;;;;5053153;28;19924;-85
2021/01/01 06:37:42;;;;;;;;;;;19.50;96.40;;;;;;5052544;28;19913;-85
2021/01/01 06:40:29;;;;;;;;;;;19.50;95.90;;;;;;5052293;28;20367;-85
2021/01/01 06:42:57;;;;;;;;;;;19.50;95.30;;;;;;5056211;28;19901;-86
2021/01/01 06:45:42;;;;;;;;;;;19.50;94.80;;;;;;5069905;28;20015;-87
2021/01/01 06:48:10;;;;;;;;;;;19.50;95.50;;;;;;5051923;28;20291;-88
2021/01/01 06:50:38;;;;;;;;;;;19.50;96.00;;;;;;5051721;28;20430;-86
2021/01/01 06:53:09;;;;;;;;;;;19.40;95.90;;;;;;5038810;28;19913;-86
2021/01/01 06:55:45;;;;;;;;;;;19.40;95.60;;;;;;5038560;28;20688;-85
2021/01/01 06:58:13;;;;;;;;;;;19.30;95.80;;;;;;5051148;28;20257;-86
2021/01/01 07:00:46;;;;;;;;;;;19.30;95.70;;;;;;5049897;28;19971;-86
2021/01/01 07:03:25;;;;;;;;;;;19.30;95.50;;;;;;5032908;28;20032;-85
2021/01/01 07:05:51;;;;;;;;;;;19.20;95.80;;;;;;5033615;28;19928;-85
2021/01/01 07:08:36;;;;;;;;;;;19.20;95.90;;;;;;5051015;28;19985;-85
2021/01/01 07:11:03;;;;;;;;;;;19.20;96.30;;;;;;5051134;28;19917;-85
2021/01/01 07:13:49;;;;;;;;;;;19.30;95.70;;;;;;5050750;28;20011;-85
2021/01/01 07:16:20;;;;;;;;;;;19.30;96.20;;;;;;5049107;28;19913;-85
2021/01/01 07:18:47;;;;;;;;;;;19.20;97.70;;;;;;5051071;28;19919;-83
2021/01/01 07:21:15;;;;;;;;;;;19.00;98.30;;;;;;5049531;28;19917;-83
2021/01/01 07:23:42;;;;;;;;;;;18.80;98.60;;;;;;5050689;28;19917;-82
2021/01/01 07:26:09;;;;;;;;;;;18.70;98.70;;;;;;5050151;28;20276;-83
2021/01/01 07:28:40;;;;;;;;;;;18.60;99.90;;;;;;5050006;28;19939;-83
2021/01/01 07:31:07;;;;;;;;;;;18.40;99.90;;;;;;5049435;28;20008;-83
2021/01/01 07:33:34;;;;;;;;;;;18.40;99.40;;;;;;5049100;28;19916;-83
2021/01/01 07:36:05;;;;;;;;;;;18.30;99.90;;;;;;5048582;28;19912;-85
2021/01/01 07:38:33;;;;;;;;;;;18.20;99.90;;;;;;5049542;28;19917;-82
2021/01/01 07:41:00;;;;;;;;;;;18.00;99.90;;;;;;5057720;28;19913;-83
2021/01/01 07:43:27;;;;;;;;;;;17.80;99.90;;;;;;5055014;28;19966;-83
2021/01/01 07:45:57;;;;;;;;;;;17.70;99.90;;;;;;5035153;28;19932;-85
2021/01/01 07:48:25;;;;;;;;;;;17.60;99.90;;;;;;5036327;28;19913;-83
2021/01/01 07:50:52;;;;;;;;;;;17.40;99.90;;;;;;5034524;28;20007;-85
2021/01/01 07:53:19;;;;;;;;;;;17.40;99.90;;;;;;5032314;28;19913;-85
2021/01/01 07:55:45;;;;;;;;;;;17.30;99.90;;;;;;5032337;28;20007;-82
2021/01/01 07:58:13;;;;;;;;;;;17.30;99.90;;;;;;5051871;28;20008;-85
2021/01/01 08:00:44;;;;;;;;;;;17.20;99.90;;;;;;5051209;28;20283;-84
2021/01/01 08:03:11;;;;;;;;;;;17.10;99.90;;;;;;5031114;28;19913;-84
2021/01/01 08:05:38;;;;;;;;;;;17.10;99.90;;;;;;5048737;28;19974;-84
2021/01/01 08:08:11;;;;;;;;;;;17.10;99.90;;;;;;5049255;28;20046;-83
2021/01/01 08:10:38;;;;;;;;;;;17.10;99.90;;;;;;5049858;28;20397;-83
2021/01/01 08:13:11;;;;;;;;;;;17.10;99.90;;;;;;5050820;28;19919;-84
2021/01/01 08:15:38;;;;;;;;;;;17.10;99.90;;;;;;5051249;28;19939;-84
2021/01/01 08:18:08;;;;;;;;;;;17.10;99.90;;;;;;5050528;28;19908;-82
2021/01/01 08:20:35;;;;;;;;;;;17.10;99.90;;;;;;5049951;28;19917;-84
2021/01/01 08:23:08;;;;;;;;;;;17.10;99.90;;;;;;5050391;28;19913;-82
2021/01/01 08:25:35;;;;;;;;;;;17.20;99.90;;;;;;5044166;28;19921;-83
2021/01/01 08:28:03;;;;;;;;;;;17.20;99.90;;;;;;5050404;28;20449;-81
2021/01/01 08:30:30;;;;;;;;;;;17.30;99.90;;;;;;5053816;28;20363;-82
2021/01/01 08:32:57;;;;;;;;;;;17.30;99.90;;;;;;5052479;28;19962;-83
2021/01/01 08:35:24;;;;;;;;;;;17.40;99.90;;;;;;5054832;28;19909;-83
2021/01/01 08:37:51;;;;;;;;;;;17.40;99.90;;;;;;5054589;28;19955;-84
2021/01/01 08:40:18;;;;;;;;;;;17.50;99.90;;;;;;5054599;28;19909;-83
2021/01/01 08:42:45;;;;;;;;;;;17.40;99.90;;;;;;5035854;28;19909;-82
2021/01/01 08:45:12;;;;;;;;;;;17.40;99.90;;;;;;5035536;28;20326;-84
2021/01/01 08:47:43;;;;;;;;;;;17.50;99.90;;;;;;5053720;28;20316;-85
2021/01/01 08:50:22;;;;;;;;;;;17.40;99.90;;;;;;5053571;28;19917;-84
2021/01/01 08:52:50;;;;;;;;;;;17.40;99.90;;;;;;5035674;28;19909;-84
2021/01/01 08:55:17;;;;;;;;;;;17.40;99.90;;;;;;5054353;28;19909;-82
2021/01/01 08:57:44;;;;;;;;;;;17.40;99.90;;;;;;5035427;28;19924;-85
2021/01/01 09:00:11;;;;;;;;;;;17.40;99.90;;;;;;5029909;28;19956;-85
2021/01/01 09:02:37;;;;;;;;;;;17.40;99.90;;;;;;5014164;28;19913;-84
2021/01/01 09:05:05;;;;;;;;;;;17.40;99.90;;;;;;5014024;28;19917;-84
2021/01/01 09:07:33;;;;;;;;;;;17.30;99.90;;;;;;5031919;28;19933;-85
2021/01/01 09:10:14;;;;;;;;;;;17.20;99.90;;;;;;5032124;28;19920;-84
2021/01/01 09:12:41;;;;;;;;;;;17.10;99.90;;;;;;5050812;28;19982;-83
2021/01/01 09:15:08;;;;;;;;;;;16.90;99.90;;;;;;5051984;28;20032;-80
2021/01/01 09:17:35;;;;;;;;;;;16.90;99.90;;;;;;5053225;28;20240;-78
2021/01/01 09:20:03;;;;;;;;;;;16.80;99.90;;;;;;5030408;28;19924;-83
2021/01/01 09:22:34;;;;;;;;;;;16.80;99.90;;;;;;5044236;28;19913;-82
2021/01/01 09:25:19;;;;;;;;;;;16.70;99.90;;;;;;5032358;28;20756;-83
2021/01/01 09:27:52;;;;;;;;;;;16.70;99.90;;;;;;5038919;28;20386;-81
2021/01/01 09:30:22;;;;;;;;;;;16.70;99.90;;;;;;5051781;28;19913;-81
2021/01/01 09:32:53;;;;;;;;;;;16.70;99.90;;;;;;5051170;28;20163;-84
2021/01/01 09:35:20;;;;;;;;;;;16.70;99.90;;;;;;5052035;28;19974;-81
2021/01/01 09:37:54;;;;;;;;;;;16.70;99.90;;;;;;5051719;28;20355;-82
2021/01/01 09:40:23;;;;;;;;;;;16.70;99.90;;;;;;5051759;28;19917;-80
2021/01/01 09:42:53;;;;;;;;;;;16.70;99.90;;;;;;5034163;28;19913;-80
2021/01/01 09:45:20;;;;;;;;;;;16.70;99.90;;;;;;5038955;28;20459;-85
2021/01/01 09:47:47;;;;;;;;;;;16.70;99.90;;;;;;5052555;28;19952;-86
2021/01/01 09:50:14;;;;;;;;;;;16.80;99.90;;;;;;5047950;28;19913;-81
2021/01/01 09:52:41;;;;;;;;;;;16.80;99.90;;;;;;5052305;28;20271;-82
2021/01/01 09:55:08;;;;;;;;;;;16.80;99.90;;;;;;5051689;28;19913;-81
2021/01/01 09:57:38;;;;;;;;;;;16.90;99.90;;;;;;5051709;28;19913;-80
2021/01/01 10:00:12;;;;;;;;;;;16.90;99.90;;;;;;5051284;28;19970;-78
2021/01/01 10:02:39;;;;;;;;;;;16.90;99.90;;;;;;5051207;28;20359;-80
2021/01/01 10:05:06;;;;;;;;;;;17.00;99.90;;;;;;5037200;28;19921;-80
2021/01/01 10:07:33;;;;;;;;;;;17.00;99.90;;;;;;5051352;28;19967;-80
2021/01/01 10:09:59;;;;;;;;;;;17.10;99.90;;;;;;5050240;28;19917;-79
2021/01/01 10:12:26;;;;;;;;;;;17.10;99.90;;;;;;5051289;28;20409;-78
2021/01/01 10:14:57;;;;;;;;;;;17.10;99.90;;;;;;5050762;28;19920;-78
2021/01/01 10:17:25;;;;;;;;;;;17.10;99.90;;;;;;5050133;28;19912;-81
2021/01/01 10:19:51;;;;;;;;;;;17.20;99.90;;;;;;5050389;28;19913;-79
2021/01/01 10:22:18;;;;;;;;;;;17.10;99.90;;;;;;5051693;28;19909;-82
2021/01/01 10:24:46;;;;;;;;;;;17.10;99.90;;;;;;5052006;28;19916;-81
2021/01/01 10:27:13;;;;;;;;;;;17.10;99.90;;;;;;5050211;28;19917;-82
2021/01/01 10:29:40;;;;;;;;;;;17.00;99.90;;;;;;5047648;28;20210;-80
2021/01/01 10:32:10;;;;;;;;;;;17.00;99.90;;;;;;5030983;28;19916;-80
2021/01/01 10:34:37;;;;;;;;;;;17.00;99.90;;;;;;5032821;28;19909;-82
2021/01/01 10:37:04;;;;;;;;;;;17.00;99.90;;;;;;5051413;28;19913;-82
2021/01/01 10:39:33;;;;;;;;;;;17.00;99.90;;;;;;5051096;28;19917;-83
2021/01/01 10:42:01;;;;;;;;;;;17.10;99.90;;;;;;5051269;28;19917;-81
2021/01/01 10:44:28;;;;;;;;;;;17.10;99.90;;;;;;5050668;28;20345;-81
2021/01/01 10:46:54;;;;;;;;;;;17.20;99.90;;;;;;5050809;28;19913;-81
2021/01/01 10:49:22;;;;;;;;;;;17.10;99.90;;;;;;5050732;28;19971;-81
2021/01/01 10:51:49;;;;;;;;;;;17.10;99.90;;;;;;5050677;28;19924;-81
2021/01/01 10:54:16;;;;;;;;;;;17.10;99.90;;;;;;5045662;28;20298;-81
2021/01/01 10:56:46;;;;;;;;;;;17.10;99.90;;;;;;5042187;28;19917;-81
2021/01/01 10:59:13;;;;;;;;;;;17.10;99.90;;;;;;5050922;28;20272;-81
2021/01/01 11:01:43;;;;;;;;;;;17.10;99.90;;;;;;5050500;28;19940;-83
2021/01/01 11:04:12;;;;;;;;;;;17.20;99.90;;;;;;5032652;28;19996;-81
2021/01/01 11:06:43;;;;;;;;;;;17.10;99.90;;;;;;5050730;28;19923;-82
2021/01/01 11:09:13;;;;;;;;;;;17.10;99.90;;;;;;5050894;28;20333;-82
2021/01/01 11:11:39;;;;;;;;;;;17.10;99.90;;;;;;5035972;28;19917;-77
2021/01/01 11:14:38;;;;;;;;;;;17.20;99.90;;;;;;5050203;28;19909;-82
2021/01/01 12:25:46;;;;;;;;;;;17.20;99.90;;;;;;5053215;28;20315;-83
2021/01/01 12:28:14;;;;;;;;;;;17.20;99.90;;;;;;5037553;28;19913;-83
2021/01/01 12:30:41;;;;;;;;;;;17.20;99.90;;;;;;5035478;28;19978;-83
2021/01/01 12:33:09;;;;;;;;;;;17.10;99.90;;;;;;5052731;28;19939;-86
2021/01/01 12:35:37;;;;;;;;;;;17.10;99.90;;;;;;5053830;28;20019;-82
2021/01/01 12:38:05;;;;;;;;;;;17.10;99.90;;;;;;5053927;28;19920;-84
2021/01/01 12:40:32;;;;;;;;;;;17.10;99.90;;;;;;5053463;28;19913;-84
2021/01/01 12:43:02;;;;;;;;;;;17.00;99.90;;;;;;5052308;28;19916;-84
2021/01/01 12:45:29;;;;;;;;;;;16.90;99.90;;;;;;5052245;28;19927;-83
2021/01/01 12:47:56;;;;;;;;;;;16.90;99.90;;;;;;5051622;28;20055;-85
2021/01/01 12:50:23;;;;;;;;;;;16.90;99.90;;;;;;5033596;28;19919;-83
2021/01/01 12:52:52;;;;;;;;;;;16.80;99.90;;;;;;5034628;28;19917;-91
2021/01/01 12:55:18;;;;;;;;;;;16.70;99.90;;;;;;5047059;28;20372;-86
2021/01/01 12:57:45;;;;;;;;;;;16.70;99.90;;;;;;5054129;28;19917;-85
2021/01/01 13:00:12;;;;;;;;;;;16.70;99.90;;;;;;5054128;28;19908;-86
2021/01/01 13:02:39;;;;;;;;;;;16.80;99.90;;;;;;5035909;28;19966;-84
2021/01/01 13:05:06;;;;;;;;;;;16.80;99.90;;;;;;5053954;28;19916;-81
2021/01/01 13:07:33;;;;;;;;;;;16.80;99.90;;;;;;5054000;28;19920;-84
2021/01/01 13:10:00;;;;;;;;;;;16.80;99.90;;;;;;5054221;28;20267;-85
2021/01/01 13:12:27;;;;;;;;;;;16.70;99.90;;;;;;5054049;28;20430;-79
2021/01/01 13:14:53;;;;;;;;;;;16.80;99.90;;;;;;5054889;28;19912;-84
2021/01/01 13:17:20;;;;;;;;;;;16.80;99.90;;;;;;5053522;28;19956;-83
2021/01/01 13:19:47;;;;;;;;;;;16.90;99.90;;;;;;5035221;28;20354;-82
2021/01/01 13:22:13;;;;;;;;;;;16.90;99.90;;;;;;5053635;28;20410;-87
2021/01/01 13:24:40;;;;;;;;;;;16.90;99.90;;;;;;5052360;28;19932;-85
2021/01/01 13:27:07;;;;;;;;;;;16.90;99.90;;;;;;5053556;28;20074;-85
2021/01/01 13:29:34;;;;;;;;;;;16.90;99.90;;;;;;5053152;28;19920;-83
2021/01/01 13:32:01;;;;;;;;;;;16.90;99.90;;;;;;5051316;28;19924;-85
2021/01/01 13:34:29;;;;;;;;;;;16.90;99.90;;;;;;5043909;28;19923;-87
2021/01/01 13:36:56;;;;;;;;;;;16.90;99.90;;;;;;5052831;28;19920;-85
2021/01/01 13:39:23;;;;;;;;;;;16.90;99.90;;;;;;5052439;28;19913;-85
2021/01/01 13:41:51;;;;;;;;;;;16.90;99.90;;;;;;5052613;28;19927;-85
2021/01/01 13:44:18;;;;;;;;;;;16.80;99.90;;;;;;5052802;28;19909;-87
2021/01/01 13:46:45;;;;;;;;;;;16.80;99.90;;;;;;5052709;28;19915;-86
2021/01/01 13:49:12;;;;;;;;;;;16.80;99.90;;;;;;5052996;28;19908;-84
2021/01/01 13:51:39;;;;;;;;;;;16.80;99.90;;;;;;5052550;28;20370;-86
2021/01/01 13:54:06;;;;;;;;;;;16.80;99.90;;;;;;5052269;28;19920;-85
2021/01/01 13:56:33;;;;;;;;;;;16.70;99.90;;;;;;5053026;28;19936;-86
2021/01/01 13:59:00;;;;;;;;;;;16.80;99.90;;;;;;5052258;28;20351;-86
2021/01/01 14:01:27;;;;;;;;;;;16.80;99.90;;;;;;5033893;28;20334;-85
2021/01/01 14:03:53;;;;;;;;;;;16.80;99.90;;;;;;5052361;28;19913;-87
2021/01/01 14:06:30;;;;;;;;;;;16.70;99.90;;;;;;5051876;28;19936;-86
2021/01/01 14:09:00;;;;;;;;;;;16.70;99.90;;;;;;5052290;28;19925;-86
2021/01/01 14:11:27;;;;;;;;;;;16.70;99.90;;;;;;5053109;28;19916;-86
2021/01/01 14:13:53;;;;;;;;;;;16.70;99.90;;;;;;5052296;28;19921;-87
2021/01/01 14:16:20;;;;;;;;;;;16.70;99.90;;;;;;5052305;28;19916;-86
2021/01/01 14:18:47;;;;;;;;;;;16.60;99.90;;;;;;5052214;28;20382;-84
2021/01/01 14:21:14;;;;;;;;;;;16.60;99.90;;;;;;5051646;28;19909;-85
2021/01/01 14:23:41;;;;;;;;;;;16.60;99.90;;;;;;5051607;28;19919;-87
2021/01/01 14:26:08;;;;;;;;;;;16.60;99.90;;;;;;5052767;28;19917;-86
2021/01/01 14:28:39;;;;;;;;;;;16.50;99.90;;;;;;5052435;28;19916;-83
2021/01/01 14:31:05;;;;;;;;;;;16.50;99.90;;;;;;5051813;28;19912;-85
2021/01/01 14:33:32;;;;;;;;;;;16.50;99.90;;;;;;5052506;28;19997;-87
2021/01/01 14:35:59;;;;;;;;;;;16.40;99.90;;;;;;5052804;28;19921;-86
2021/01/01 14:38:26;;;;;;;;;;;16.40;99.90;;;;;;5033989;28;19917;-84
2021/01/01 14:40:52;;;;;;;;;;;16.50;99.90;;;;;;5053272;28;19967;-87
2021/01/01 14:43:19;;;;;;;;;;;16.50;99.90;;;;;;5052689;28;19917;-86
2021/01/01 14:45:46;;;;;;;;;;;16.40;99.90;;;;;;5051014;28;19985;-86
2021/01/01 14:48:12;;;;;;;;;;;16.40;99.90;;;;;;5051620;28;19913;-85
2021/01/01 14:50:39;;;;;;;;;;;16.40;99.90;;;;;;5053034;28;20268;-87
2021/01/01 14:53:06;;;;;;;;;;;16.50;99.90;;;;;;5052891;28;19908;-84
2021/01/01 14:55:32;;;;;;;;;;;16.40;99.90;;;;;;5052761;28;19912;-86
2021/01/01 14:57:59;;;;;;;;;;;16.40;99.90;;;;;;5052906;28;19913;-86
2021/01/01 15:00:26;;;;;;;;;;;16.40;99.90;;;;;;5051684;28;19974;-86
2021/01/01 15:02:52;;;;;;;;;;;16.40;99.90;;;;;;5052465;28;19924;-86
2021/01/01 15:05:19;;;;;;;;;;;16.40;99.90;;;;;;5051999;28;20322;-86
2021/01/01 15:07:46;;;;;;;;;;;16.40;99.90;;;;;;5052138;28;19927;-87
2021/01/01 15:10:13;;;;;;;;;;;16.40;99.90;;;;;;5050724;28;19912;-86
2021/01/01 15:12:39;;;;;;;;;;;16.40;99.90;;;;;;5052330;28;19916;-86
2021/01/01 15:15:06;;;;;;;;;;;16.30;99.90;;;;;;5050348;28;19979;-83
2021/01/01 15:17:33;;;;;;;;;;;16.40;99.90;;;;;;5051669;28;19920;-84
2021/01/01 15:20:00;;;;;;;;;;;16.40;99.90;;;;;;5051959;28;19917;-86
2021/01/01 15:22:27;;;;;;;;;;;16.40;99.90;;;;;;5034255;28;20328;-86
2021/01/01 15:24:54;;;;;;;;;;;16.50;99.90;;;;;;5052107;28;20282;-84
2021/01/01 15:27:21;;;;;;;;;;;16.40;99.90;;;;;;5052241;28;19909;-85
2021/01/01 15:29:48;;;;;;;;;;;16.40;99.90;;;;;;5034062;28;20473;-86